Terminal Aerodrome Forecast
Issued by NWS

Home | Current Version | Previous Version | Text Only | Print | Product List | Glossary On
Versions: 1 2 3 4 5 6 7 8 9 10 11 12 13 14 15 16 17 18
442
FTUS43 KIND 131123
TAFLAF
TAF
KLAF 131123Z 1312/1412 32011KT P6SM FEW040
     FM131500 31010KT P6SM FEW040 SCT250
     FM132300 VRB03KT P6SM BKN200
     FM140700 10006KT P6SM SCT040 OVC080
      AMD LTD TO CLD VIS AND WIND TIL 131400=

USA.gov is the U.S. government's official web portal to all federal, state and local government web resources and services.